Terminal Aerodrome Forecast
Issued by NWS

Home | Current Version | Previous Version | Text Only | Print | Product List | Glossary On
Versions: 1 2 3 4 5 6 7 8 9 10
025
FTUS44 KEPZ 252336
TAFDMN
TAF
KDMN 252336Z 2600/2624 26034G45KT P6SM SCT090 SCT250
      TEMPO 2600/2603 4SM BLDU SCT030
     FM260400 27025G35KT P6SM SCT250
     FM260800 29020KT P6SM SKC=

USA.gov is the U.S. government's official web portal to all federal, state and local government web resources and services.